KPTS/PTS METAR and TAF weather

Enter ICAO airport designator
Station Type Date Time Source
KPTS METAR 2019/04/25 09:55 UTC NOAA

KPTS 250955Z AUTO 00000KT 5SM BR OVC015 12/12 A2977 RMK AO2 T01230121


Station Type Date Time Source
KPTS Decoded METAR 2019/04/25 09:55 UTC NOAA

Station name not available
Apr 25, 2019 - 05:55 AM EDT / 2019.04.25 0955 UTC
Wind: Calm:0
Visibility: 5 mile(s):0
Sky conditions: overcast
Weather: mist
Temperature: 54.1 F (12.3 C)
Dew Point: 53.8 F (12.1 C)
Relative Humidity: 98%
Pressure (altimeter): 29.77 in. Hg (1008 hPa)
ob: KPTS 250955Z AUTO 00000KT 5SM BR OVC015 12/12 A2977 RMK AO2 T01230121
cycle: 10

Station Type Date Time Source
KPTS TAF UTC NOAA

Error!

Example: see airport list